Sant Martí Sacalm





Hora UTC 11:30
Temperatura 8.1 ºC
Humitat 64.8 %
Pressió 1019.9 hPa
Pluja 0.0 mm
Velocitat vent 15.3 km/h
Direcció vent SW
Radiació solar 515.6 W/m²

Dades diàries 2021-01-17



Hora UTC (hivern +1h; estiu +2h)
Temperatura (ºC) Humitat (%) Pressió (hPa) Velocitat vent (km/h) Precipitació (mm) Radiació solar (W/m²)
Hora UTC Aire Humitat Pressió Vel. Dir. Vel. Max Dir. Intent. màx 5 min. Rad. Sol.
00:05 2.3 83.2 1021.0 17.2 SW 17.2 WSW 0.0 0.1
00:10 2.4 82.5 1020.9 17.4 SW 24.7 SW 0.0 0.1
00:15 2.2 83.9 1020.9 19.7 WSW 24.7 SW 0.0 0.1
00:20 2.3 83.6 1020.9 17.5 WSW 21.9 WSW 0.0 0.1
00:25 2.2 84.1 1020.8 16.3 SW 19.4 SW 0.0 0.1
00:30 2.1 85.0 1020.7 17.4 SW 22.6 SSW 0.0 0.1
00:35 2.2 84.1 1020.6 20.9 SW 25.8 WSW 0.0 0.1
00:40 2.5 81.9 1020.6 19.9 SW 24.0 WSW 0.0 0.1
00:45 2.6 80.8 1020.5 21.7 WSW 29.3 WSW 0.0 0.1
00:50 3.1 78.3 1020.5 19.4 WSW 27.5 WSW 0.0 0.1
00:55 3.1 78.7 1020.5 18.0 WSW 30.0 WSW 0.0 0.1
01:00 3.5 76.7 1020.4 22.9 WSW 29.7 WSW 0.0 0.1
01:05 3.3 77.7 1020.4 24.4 WSW 32.5 WSW 0.0 0.1
01:10 2.8 80.6 1020.4 21.1 SW 26.5 SW 0.0 0.1
01:15 2.6 81.9 1020.3 19.8 SW 24.7 SW 0.0 0.1
01:20 2.5 82.6 1020.4 19.5 SW 23.7 SW 0.0 0.1
01:25 2.5 82.7 1020.3 20.0 SW 24.0 SW 0.0 0.1
01:30 2.5 82.2 1020.2 19.6 SW 24.0 SW 0.0 0.1
01:35 2.4 83.0 1020.1 20.3 SW 26.1 SW 0.0 0.1
01:40 2.6 81.8 1020.2 20.7 SW 25.1 SW 0.0 0.1
01:45 3.0 79.0 1020.2 18.7 WSW 24.4 SW 0.0 0.1
01:50 2.6 81.1 1020.1 18.9 SW 25.8 SW 0.0 0.1
01:55 2.6 81.6 1020.1 21.8 SW 26.5 WSW 0.0 0.1
02:00 2.7 81.6 1020.0 22.8 SW 34.6 SW 0.0 0.1
02:05 2.9 81.3 1020.0 25.2 SW 32.5 SW 0.0 0.1
02:10 2.7 82.3 1020.0 22.9 SW 30.0 SW 0.0 0.1
02:15 2.8 82.2 1020.1 22.7 WSW 30.7 WSW 0.0 0.1
02:20 2.8 82.9 1020.0 24.4 WSW 31.4 SW 0.0 0.1
02:25 2.6 83.8 1020.0 23.9 SW 32.1 SW 0.0 0.1
02:30 2.5 83.9 1020.0 22.1 SW 29.3 SW 0.0 0.1
02:35 2.5 84.2 1019.9 22.9 SW 30.4 SW 0.0 0.1
02:40 2.4 84.7 1019.9 23.7 SW 29.7 SW 0.0 0.1
02:45 2.2 85.7 1019.8 23.9 SW 28.9 SW 0.0 0.1
02:50 2.1 86.3 1019.9 20.6 SW 26.8 SW 0.0 0.1
02:55 1.9 86.9 1020.0 16.7 SW 21.2 WSW 0.0 0.1
03:00 1.9 87.0 1020.1 16.6 SW 20.8 SW 0.0 0.1
03:05 2.0 86.0 1020.1 17.2 SW 20.8 SW 0.0 0.1
03:10 2.1 85.7 1020.1 17.5 SW 21.9 SW 0.0 0.1
03:15 2.1 85.2 1020.1 15.8 SW 20.8 SW 0.0 0.1
03:20 2.0 85.4 1020.2 12.0 SW 15.2 SW 0.0 0.1
03:25 2.1 84.9 1020.1 14.3 SW 17.7 SW 0.0 0.1
03:30 2.0 85.1 1019.9 17.4 SW 21.5 SW 0.0 0.1
03:35 2.0 85.1 1019.7 19.8 SW 26.8 WSW 0.0 0.1
03:40 2.6 82.1 1019.7 22.5 WSW 29.7 WSW 0.0 0.1
03:45 2.5 82.7 1019.7 18.5 SW 25.1 WSW 0.0 0.1
03:50 2.3 83.9 1019.7 18.5 SW 25.1 SW 0.0 0.1
03:55 2.1 84.8 1019.6 17.4 SW 23.3 SW 0.0 0.1
04:00 2.2 84.0 1019.6 16.9 SW 22.2 SW 0.0 0.1
04:05 2.2 84.1 1019.5 18.6 SW 22.2 WSW 0.0 0.1
04:10 2.2 84.1 1019.5 20.8 SW 25.1 WSW 0.0 0.1
04:15 2.2 84.0 1019.4 20.2 SW 25.4 WSW 0.0 0.1
04:20 2.4 82.9 1019.5 20.2 SW 26.1 SW 0.0 0.1
04:25 2.5 82.1 1019.4 19.9 SW 26.1 SW 0.0 0.1
04:30 2.5 81.9 1019.4 21.8 SW 29.3 SW 0.0 0.1
04:35 2.7 81.1 1019.3 21.9 WSW 27.9 SW 0.0 0.1
04:40 2.8 80.3 1019.2 24.1 SW 30.0 WSW 0.0 0.1
04:45 2.8 80.6 1019.1 22.5 SW 28.9 SW 0.0 0.1
04:50 2.7 81.1 1019.0 20.9 SW 29.3 SW 0.0 0.1
04:55 2.6 81.5 1019.1 23.3 SW 30.4 SW 0.0 0.1
05:00 2.5 81.8 1019.1 20.8 SW 25.4 WSW 0.0 0.1
05:05 2.7 81.1 1019.1 22.2 SW 26.8 SW 0.0 0.1
05:10 2.6 81.1 1019.0 18.9 SW 24.7 SW 0.0 0.1
05:15 2.6 81.5 1019.0 20.5 SW 29.3 SW 0.0 0.1
05:20 2.6 81.2 1019.0 19.6 SW 26.5 WSW 0.0 0.1
05:25 2.8 80.4 1019.1 20.6 WSW 29.7 WSW 0.0 0.1
05:30 3.2 78.4 1019.1 21.7 SW 27.9 WSW 0.0 0.1
05:35 3.0 79.0 1019.3 17.4 SW 24.7 WSW 0.0 0.1
05:40 2.8 80.1 1019.4 15.4 SW 21.5 WSW 0.0 0.1
05:45 2.8 79.9 1019.4 15.8 SW 19.1 WSW 0.0 0.1
05:50 3.1 78.6 1019.4 16.2 SW 19.1 SW 0.0 0.1
05:55 3.1 78.5 1019.4 17.0 WSW 22.2 WSW 0.0 0.1
06:00 3.1 78.9 1019.4 17.2 SW 21.9 WSW 0.0 0.1
06:05 3.2 78.5 1019.4 15.6 SW 21.2 SW 0.0 0.1
06:10 3.0 79.8 1019.5 16.5 SW 21.2 SW 0.0 0.1
06:15 2.9 80.3 1019.6 16.3 SW 24.7 WSW 0.0 0.1
06:20 2.9 80.4 1019.6 16.6 SW 21.9 SW 0.0 0.1
06:25 2.9 80.2 1019.6 18.4 SW 24.7 WSW 0.0 0.1
06:30 3.1 79.6 1019.6 18.9 SW 23.7 WSW 0.0 0.1
06:35 3.1 79.3 1019.5 20.0 SW 24.0 SW 0.0 0.1
06:40 2.9 80.4 1019.5 19.3 SW 24.0 SW 0.0 0.1
06:45 3.0 80.0 1019.5 18.3 SW 24.4 WSW 0.0 0.1
06:50 3.0 79.9 1019.4 18.9 SW 25.4 WSW 0.0 0.1
06:55 3.2 79.0 1019.4 20.4 SW 26.8 WSW 0.0 0.1
07:00 3.0 79.8 1019.5 21.7 SW 27.2 SW 0.0 0.2
07:05 2.9 80.3 1019.5 19.8 SW 23.3 SW 0.0 0.6
07:10 2.9 80.4 1019.5 17.8 SW 22.6 SW 0.0 1.1
07:15 3.1 79.1 1019.5 17.8 SW 23.0 SSW 0.0 2.5
07:20 3.2 78.8 1019.4 19.4 SW 22.2 SW 0.0 3.4
07:25 2.9 80.4 1019.4 17.9 SW 22.2 SW 0.0 6.4
07:30 3.0 80.2 1019.5 19.0 SW 25.4 SW 0.0 10.6
07:35 3.3 78.5 1019.6 16.9 WSW 23.3 WSW 0.0 15.1
07:40 3.6 76.6 1019.6 17.0 SW 23.3 SW 0.0 18.9
07:45 3.4 77.2 1019.5 18.1 SW 23.7 SW 0.0 20.9
07:50 3.3 78.1 1019.7 17.3 SW 22.6 SW 0.0 25.8
07:55 3.4 77.8 1019.7 15.6 SW 23.7 SW 0.0 29.4
08:00 3.5 77.1 1019.8 18.1 WSW 24.0 W 0.0 35.4
08:05 4.0 74.1 1019.8 17.4 WSW 23.0 WSW 0.0 39.5
08:10 3.9 75.1 1019.9 15.4 WSW 20.1 WSW 0.0 44.0
08:15 3.9 74.7 1019.9 16.2 SW 21.2 SW 0.0 51.7
08:20 4.1 73.6 1019.9 15.6 SW 18.7 SW 0.0 55.4
08:25 4.4 72.2 1019.8 13.9 SW 18.0 WSW 0.0 65.2
08:30 4.3 72.4 1019.8 13.2 SW 15.9 SW 0.0 65.4
08:35 4.3 72.8 1019.8 14.5 SW 18.0 SW 0.0 72.2
08:40 4.1 73.9 1020.0 12.6 SW 17.0 SW 0.0 94.0
08:45 4.1 73.9 1020.1 13.2 SW 16.6 WSW 0.0 124.0
08:50 4.3 73.5 1020.1 11.8 SW 14.5 WSW 0.0 141.8
08:55 4.4 72.7 1020.2 10.5 SW 12.7 SW 0.0 198.6
09:00 4.6 72.1 1020.3 11.5 SW 15.2 SW 0.0 280.8
09:05 4.8 71.2 1020.2 13.2 SW 15.2 SW 0.0 294.6
09:10 5.1 70.4 1020.3 11.9 SW 15.2 SW 0.0 304.5
09:15 5.1 70.3 1020.2 15.9 SW 20.5 SW 0.0 223.4
09:20 5.1 70.9 1020.1 16.0 SW 19.4 SW 0.0 237.4
09:25 5.1 70.7 1020.2 16.5 SW 20.1 SW 0.0 248.8
09:30 5.4 71.1 1020.2 16.6 WSW 21.2 WSW 0.0 314.8
09:35 5.6 70.2 1020.2 18.1 SW 22.6 SW 0.0 324.1
09:40 6.0 69.4 1020.3 17.4 WSW 25.1 SW 0.0 327.2
09:45 6.2 68.7 1020.3 17.7 SW 25.4 WSW 0.0 345.1
09:50 6.1 68.1 1020.3 20.0 SW 24.0 SW 0.0 352.1
09:55 6.0 68.1 1020.2 19.1 SW 26.5 SW 0.0 362.0
10:00 6.1 67.9 1020.3 17.5 SW 22.2 SW 0.0 371.5
10:05 6.0 68.3 1020.3 17.5 SW 21.5 SW 0.0 379.9
10:10 6.0 69.4 1020.2 18.5 SW 23.0 SW 0.0 383.8
10:15 6.3 68.8 1020.2 15.7 SW 20.8 SW 0.0 388.6
10:20 6.4 67.6 1020.2 16.8 SW 19.8 SW 0.0 401.7
10:25 6.2 67.5 1020.2 18.3 SW 23.7 SSW 0.0 415.9
10:30 6.1 67.9 1020.2 18.2 SW 23.0 SW 0.0 421.5
10:35 6.0 68.1 1020.2 17.0 SW 21.9 SW 0.0 429.4
10:40 6.2 68.1 1020.3 13.3 SW 20.1 SW 0.0 436.7
10:45 6.5 67.7 1020.3 10.8 SSW 15.5 SW 0.0 446.2
10:50 6.6 67.1 1020.3 11.3 SW 14.8 SW 0.0 462.6
10:55 7.2 66.3 1020.2 10.1 SSW 14.1 SSW 0.0 455.1
11:00 7.4 64.9 1020.1 11.9 SW 16.6 SW 0.0 467.4
11:05 7.6 65.2 1020.1 13.3 SW 19.4 SW 0.0 471.4
11:10 7.7 64.8 1020.0 14.5 SW 18.0 SW 0.0 468.3
11:15 7.7 64.0 1020.0 14.1 SW 19.1 SSW 0.0 468.6
11:20 7.5 64.4 1019.9 16.1 SW 23.0 SW 0.0 483.4
11:25 7.5 64.6 1019.8 16.9 SW 22.2 SW 0.0 512.0
11:30 8.1 64.8 1019.9 15.3 SW 20.8 WSW 0.0 515.6
Màxima 8.3 87.0 1021.0 25.2 SW 34.6 SW 0.0 515.6
Mínima 1.8 64.0 1019.0
Total 0.0